Hauptseite
METAR-TAF:

METAR-TAF

Flughäfen :

Flughafen Karlsruhe/Baden-Baden

Baden-Baden, Deutschland

Breite: 48-46-43N, Länge: 008-04-47E, Höhe: 124 m

Beobachtung

Neuester Wetterbericht von vor 34 Minuten, um 00:50 UTC
Wind 8 kt aus Nord/Nordost
Temperatur 12°C
Luftfeuchtigkeit 54%
Luftdruck 1020 hPa
Sichtweite 10 km oder mehr

METAR: EDSB 310050Z AUTO 03008KT 9999 NCD 12/03 Q1020

Zeit: 03:24 (01:24 UTC)

Prognose

Neuester Wetterbericht von vor 8 Stunden und 24 Minuten, um 17:00 UTC
Gültige Prognose vom 30 um 18 UTC bis 31 um 18 UTC
Wind 12 kt aus Nordost
Sichtweite 10 km oder mehr
keine Wolken unter 1500 m und keine Kumulonimbus oder Gewitterwolken
Übergehend zu
vom 30 um 18 UTC bis 30 um 20 UTC
Wind 7 kt aus Nord/Nordost
Übergehend zu
vom 31 um 06 UTC bis 31 um 08 UTC
Wind 13 kt aus Nord/Nordost

TAF: EDSB 301700Z 3018/3118 04012KT CAVOK BECMG 3018/3020 03007KT BECMG 3106/3108 03013KT

Wetterbeobachtungen und Prognosen von mehr als 4000 Flughäfen (METAR und TAF Bericht).

Die verfügbaren Stationen werden durch gelbe und rote Markierungen auf der Karte dargestellt.

Führen Sie die Maus auf sie, um den Namen der Station zu sehen.

Darauf klicken, um die Beobachtung von Wetterbeobachtungen und Prognosen zu sehen.

Um die Karte zu ändern : klicken Sie auf den grünen Tasten mit einem schwarzen Kreuz Zum Vergrößern, auf den grünen Button mit einem Gedankenstrich zu verkleinern, oder auf die grünen Pfeile für benachbarte Karten.


METAR-TAF: